Home > Products > Valid Products > MTR

000
SAUS46 KSGX 032253
MTRCZZ
METAR KCZZ 032252Z AUTO 22013KT 27/09 A2986 RMK AO1 SLP082 T02670089





000
SAUS46 KSGX 032253
MTRCZZ
METAR KCZZ 032252Z AUTO 22013KT 27/09 A2986 RMK AO1 SLP082 T02670089





000
SAUS46 KSGX 032153
MTRCZZ
METAR KCZZ 032152Z AUTO 23012KT 200V260 28/07 A2987 RMK AO1 SLP085
T02780072





000
SAUS46 KSGX 032053
MTRCZZ
METAR KCZZ 032052Z AUTO 23013G20KT 28/06 A2989 RMK AO1 SLP092
T02780056 58013





000
SAUS46 KSGX 032053
MTRCZZ
METAR KCZZ 032052Z AUTO 23013G20KT 28/06 A2989 RMK AO1 SLP092
T02780056 58013





000
SAUS46 KSGX 031953
MTRCZZ
METAR KCZZ 031952Z AUTO 22011G19KT 28/08 A2991 RMK AO1 SLP098
T02780083





000
SAUS46 KSGX 031853
MTRCZZ
METAR KCZZ 031852Z AUTO 23012KT 26/09 A2992 RMK AO1 SLP103 T02610094





000
SAUS46 KSGX 031853
MTRCZZ
METAR KCZZ 031852Z AUTO 23012KT 26/09 A2992 RMK AO1 SLP103 T02610094





000
SAUS46 KSGX 031753
MTRCZZ
METAR KCZZ 031752Z AUTO 23010KT 26/08 A2993 RMK AO1 SLP104 T02610078
10261 20067 57004





000
SAUS46 KSGX 031653
MTRCZZ
METAR KCZZ 031652Z AUTO VRB06KT 24/07 A2994 RMK AO1 SLP108 T02390072





000
SAUS46 KSGX 031553
MTRCZZ
METAR KCZZ 031552Z AUTO 00000KT 21/04 A2994 RMK AO1 SLP110 T02110044





000
SAUS46 KSGX 031553
MTRCZZ
METAR KCZZ 031552Z AUTO 00000KT 21/04 A2994 RMK AO1 SLP110 T02110044





000
SAUS46 KSGX 031453
MTRCZZ
METAR KCZZ 031452Z AUTO 05003KT 16/04 A2994 RMK AO1 SLP114 T01610039
53005





000
SAUS46 KSGX 031354
MTRCZZ
METAR KCZZ 031352Z AUTO 06005KT 08/00 A2994 RMK AO1 SLP116 T00780000





000
SAUS46 KSGX 031253
MTRCZZ
METAR KCZZ 031252Z AUTO 05006KT 09/01 A2993 RMK AO1 SLP110 T00890011





000
SAUS46 KSGX 031253
MTRCZZ
METAR KCZZ 031252Z AUTO 05006KT 09/01 A2993 RMK AO1 SLP110 T00890011





000
SAUS46 KSGX 031153
MTRCZZ
METAR KCZZ 031152Z AUTO 05006KT 08/02 A2993 RMK AO1 SLP107 T00830022
10150 20083 56005





000
SAUS46 KSGX 031153
MTRCZZ
METAR KCZZ 031152Z AUTO 05006KT 08/02 A2993 RMK AO1 SLP107 T00830022
10150 20083 56005





000
SAUS46 KSGX 031053
MTRCZZ
METAR KCZZ 031052Z AUTO 05006KT 09/03 A2993 RMK AO1 SLP107 T00940028





000
SAUS46 KSGX 030953
MTRCZZ
METAR KCZZ 030952Z AUTO 04004KT 10/04 A2994 RMK AO1 SLP108 T01000044





000
SAUS46 KSGX 030853
MTRCZZ
METAR KCZZ 030852Z AUTO 03003KT 11/06 A2994 RMK AO1 SLP111 T01110061
58004





000
SAUS46 KSGX 030754
MTRCZZ
METAR KCZZ 030752Z AUTO 05005KT 12/08 A2996 RMK AO1 SLP115 T01220078
402940072





000
SAUS46 KSGX 030754
MTRCZZ
METAR KCZZ 030752Z AUTO 05005KT 12/08 A2996 RMK AO1 SLP115 T01220078
402940072





000
SAUS46 KSGX 030654
MTRCZZ
METAR KCZZ 030652Z AUTO 03004KT 13/08 A2996 RMK AO1 SLP115 T01280083





000
SAUS46 KSGX 030654
MTRCZZ
METAR KCZZ 030652Z AUTO 03004KT 13/08 A2996 RMK AO1 SLP115 T01280083





000
SAUS46 KSGX 030553
MTRCZZ
METAR KCZZ 030552Z AUTO 05003KT 16/10 A2996 RMK AO1 SLP113 T01560100
10267 20144 51004





000
SAUS46 KSGX 030553
MTRCZZ
METAR KCZZ 030552Z AUTO 05003KT 16/10 A2996 RMK AO1 SLP113 T01560100
10267 20144 51004





000
SAUS46 KSGX 030453
MTRCZZ
METAR KCZZ 030452Z AUTO 36003KT 16/11 A2995 RMK AO1 SLP111 T01610106





000
SAUS46 KSGX 030353
MTRCZZ
METAR KCZZ 030352Z AUTO 04004KT 16/11 A2996 RMK AO1 SLP115 T01560106





000
SAUS46 KSGX 030353
MTRCZZ
METAR KCZZ 030352Z AUTO 04004KT 16/11 A2996 RMK AO1 SLP115 T01560106





000
SAUS46 KSGX 030253
MTRCZZ
METAR KCZZ 030252Z AUTO 21005KT 18/12 A2994 RMK AO1 SLP114 T01830122
53008





000
SAUS46 KSGX 030153
MTRCZZ
METAR KCZZ 030152Z AUTO 21010KT 21/13 A2993 RMK AO1 SLP112 T02060128





000
SAUS46 KSGX 030053
MTRCZZ
METAR KCZZ 030052Z AUTO 22012KT 24/12 A2991 RMK AO1 SLP105 T02390122





000
SAUS46 KSGX 022353
MTRCZZ
METAR KCZZ 022352Z AUTO 22011KT 27/09 A2992 RMK AO1 SLP105 T02670089
10294 20261 56012





000
SAUS46 KSGX 022353
MTRCZZ
METAR KCZZ 022352Z AUTO 22011KT 27/09 A2992 RMK AO1 SLP105 T02670089
10294 20261 56012





000
SAUS46 KSGX 022253
MTRCZZ
METAR KCZZ 022252Z AUTO 22013KT 28/08 A2992 RMK AO1 SLP103 T02780083





000
SAUS46 KSGX 022153
MTRCZZ
METAR KCZZ 022152Z AUTO 20012G17KT 29/08 A2993 RMK AO1 SLP107
T02890083





000
SAUS46 KSGX 022053
MTRCZZ
METAR KCZZ 022052Z AUTO 24007KT 220V280 28/05 A2996 RMK AO1 SLP115
T02830050 58010





000
SAUS46 KSGX 022053
MTRCZZ
METAR KCZZ 022052Z AUTO 24007KT 220V280 28/05 A2996 RMK AO1 SLP115
T02830050 58010





000
SAUS46 KSGX 021953
MTRCZZ
METAR KCZZ 021952Z AUTO 24009KT 28/07 A2997 RMK AO1 SLP119 T02780072





000
SAUS46 KSGX 021853
MTRCZZ
METAR KCZZ 021852Z AUTO 23010G16KT 27/04 A2998 RMK AO1 SLP122
T02720044





000
SAUS46 KSGX 021753
MTRCZZ
METAR KCZZ 021752Z AUTO 23009KT 27/03 A2999 RMK AO1 SLP125 T02670033
10272 20072 55002





000
SAUS46 KSGX 021653
MTRCZZ
METAR KCZZ 021652Z AUTO 27/M04 A2997 RMK AO1 SLP119 T02721039





000
SAUS46 KSGX 021553
MTRCZZ
METAR KCZZ 021552Z AUTO 00000KT 24/M03 A2998 RMK AO1 SLP123
T02391033





000
SAUS46 KSGX 021553
MTRCZZ
METAR KCZZ 021552Z AUTO 00000KT 24/M03 A2998 RMK AO1 SLP123
T02391033





000
SAUS46 KSGX 021453
MTRCZZ
METAR KCZZ 021452Z AUTO 04003KT 16/00 A2999 RMK AO1 SLP131 T01610000
53005





000
SAUS46 KSGX 021453
MTRCZZ
METAR KCZZ 021452Z AUTO 04003KT 16/00 A2999 RMK AO1 SLP131 T01610000
53005





000
SAUS46 KSGX 021353
MTRCZZ
METAR KCZZ 021352Z AUTO 05007KT 09/01 A2999 RMK AO1 SLP132 T00940006





000
SAUS46 KSGX 021253
MTRCZZ
METAR KCZZ 021252Z AUTO 04005KT 09/02 A2998 RMK AO1 SLP128 T00890017





000
SAUS46 KSGX 021253
MTRCZZ
METAR KCZZ 021252Z AUTO 04005KT 09/02 A2998 RMK AO1 SLP128 T00890017





000
SAUS46 KSGX 021153
MTRCZZ
METAR KCZZ 021152Z AUTO 05006KT 08/02 A2998 RMK AO1 SLP125 T00830017
10133 20078 57003





000
SAUS46 KSGX 021153
MTRCZZ
METAR KCZZ 021152Z AUTO 05006KT 08/02 A2998 RMK AO1 SLP125 T00830017
10133 20078 57003





000
SAUS46 KSGX 021053
MTRCZZ
METAR KCZZ 021052Z AUTO 05006KT 09/03 A2998 RMK AO1 SLP125 T00940033





000
SAUS46 KSGX 020953
MTRCZZ
METAR KCZZ 020952Z AUTO 05007KT 09/03 A2998 RMK AO1 SLP125 T00890033





000
SAUS46 KSGX 020853
MTRCZZ
METAR KCZZ 020852Z AUTO 04004KT 12/06 A2999 RMK AO1 SLP125 T01170061
58001





000
SAUS46 KSGX 020754
MTRCZZ
METAR KCZZ 020752Z AUTO 05005KT 11/07 A2999 RMK AO1 SLP127 T01110072
402940089





000
SAUS46 KSGX 020754
MTRCZZ
METAR KCZZ 020752Z AUTO 05005KT 11/07 A2999 RMK AO1 SLP127 T01110072
402940089





000
SAUS46 KSGX 020654
MTRCZZ
METAR KCZZ 020652Z AUTO 05006KT 12/09 A2999 RMK AO1 SLP126 T01220089





000
SAUS46 KSGX 020654
MTRCZZ
METAR KCZZ 020652Z AUTO 05006KT 12/09 A2999 RMK AO1 SLP126 T01220089





000
SAUS46 KSGX 020553
MTRCZZ
METAR KCZZ 020552Z AUTO 04005KT 13/09 A2999 RMK AO1 SLP125 T01280094
10261 20122 51012





000
SAUS46 KSGX 020553
MTRCZZ
METAR KCZZ 020552Z AUTO 04005KT 13/09 A2999 RMK AO1 SLP125 T01280094
10261 20122 51012





000
SAUS46 KSGX 020453
MTRCZZ
METAR KCZZ 020452Z AUTO 00000KT 14/10 A2999 RMK AO1 SLP124 T01440100





000
SAUS46 KSGX 020353
MTRCZZ
METAR KCZZ 020352Z AUTO 03004KT 15/11 A2997 RMK AO1 SLP122 T01500111





000
SAUS46 KSGX 020253
MTRCZZ
METAR KCZZ 020252Z AUTO 18004KT 18/14 A2995 RMK AO1 SLP116 T01830139
53009





000
SAUS46 KSGX 020253
MTRCZZ
METAR KCZZ 020252Z AUTO 18004KT 18/14 A2995 RMK AO1 SLP116 T01830139
53009





000
SAUS46 KSGX 020153
MTRCZZ
METAR KCZZ 020152Z AUTO 21007KT 21/13 A2993 RMK AO1 SLP112 T02060133





000
SAUS46 KSGX 020153
MTRCZZ
METAR KCZZ 020152Z AUTO 21007KT 21/13 A2993 RMK AO1 SLP112 T02060133





000
SAUS46 KSGX 020053
MTRCZZ
METAR KCZZ 020052Z AUTO 21007KT 24/12 A2993 RMK AO1 SLP108 T02440117





000
SAUS46 KSGX 012353
MTRCZZ
METAR KCZZ 012352Z AUTO 21009KT 26/12 A2992 RMK AO1 SLP104 T02610117
10294 20256 55003





000
SAUS46 KSGX 012253
MTRCZZ
METAR KCZZ 012252Z AUTO 21016KT 26/12 A2992 RMK AO1 SLP103 T02560122





000
SAUS46 KSGX 012153
MTRCZZ
METAR KCZZ 012152Z AUTO 22013KT 29/09 A2992 RMK AO1 SLP101 T02890094





000
SAUS46 KSGX 012053
MTRCZZ
METAR KCZZ 012052Z AUTO 21015KT 28/09 A2993 RMK AO1 SLP106 T02830089
55004





000
SAUS46 KSGX 011953
MTRCZZ
METAR KCZZ 011952Z AUTO 22013KT 28/09 A2993 RMK AO1 SLP105 T02780089





000
SAUS46 KSGX 011953
MTRCZZ
METAR KCZZ 011952Z AUTO 22013KT 28/09 A2993 RMK AO1 SLP105 T02780089





000
SAUS46 KSGX 011853
MTRCZZ
METAR KCZZ 011852Z AUTO 22013KT 29/08 A2993 RMK AO1 SLP105 T02890083





000
SAUS46 KSGX 011753
MTRCZZ
METAR KCZZ 011752Z AUTO 23010KT 28/04 A2994 RMK AO1 SLP108 T02830044
10294 20094 58001





000
SAUS46 KSGX 011653
MTRCZZ
METAR KCZZ 011652Z AUTO VRB03KT 27/04 A2995 RMK AO1 SLP108 T02670039





000
SAUS46 KSGX 011553
MTRCZZ
METAR KCZZ 011552Z AUTO 00000KT 23/04 A2994 RMK AO1 SLP109 T02280039





000
SAUS46 KSGX 011553
MTRCZZ
METAR KCZZ 011552Z AUTO 00000KT 23/04 A2994 RMK AO1 SLP109 T02280039





000
SAUS46 KSGX 011453
MTRCZZ
METAR KCZZ 011452Z AUTO 00000KT 17/05 A2995 RMK AO1 SLP112 T01720050
50005





000
SAUS46 KSGX 011453
MTRCZZ
METAR KCZZ 011452Z AUTO 00000KT 17/05 A2995 RMK AO1 SLP112 T01720050
50005





000
SAUS46 KSGX 011353
MTRCZZ
METAR KCZZ 011352Z AUTO 04004KT 12/03 A2995 RMK AO1 SLP115 T01170033





000
SAUS46 KSGX 011253
MTRCZZ
METAR KCZZ 011252Z AUTO 06005KT 10/03 A2994 RMK AO1 SLP108 T01000033





000
SAUS46 KSGX 011253
MTRCZZ
METAR KCZZ 011252Z AUTO 06005KT 10/03 A2994 RMK AO1 SLP108 T01000033





000
SAUS46 KSGX 011153
MTRCZZ
METAR KCZZ 011152Z AUTO 06005KT 10/03 A2993 RMK AO1 SLP106 T01000033
10144 20089 55005





000
SAUS46 KSGX 011153
MTRCZZ
METAR KCZZ 011152Z AUTO 06005KT 10/03 A2993 RMK AO1 SLP106 T01000033
10144 20089 55005





000
SAUS46 KSGX 011053
MTRCZZ
METAR KCZZ 011052Z AUTO 08004KT 11/03 A2993 RMK AO1 SLP103 T01110033





000
SAUS46 KSGX 010953
MTRCZZ
METAR KCZZ 010952Z AUTO 04004KT 12/03 A2994 RMK AO1 SLP106 T01170033





000
SAUS46 KSGX 010853
MTRCZZ
METAR KCZZ 010852Z AUTO 05004KT 11/04 A2995 RMK AO1 SLP109 T01110039
58001





000
SAUS46 KSGX 010753
MTRCZZ
METAR KCZZ 010752Z AUTO 04005KT 12/04 A2996 RMK AO1 SLP111 T01220044
403220117





000
SAUS46 KSGX 010653
MTRCZZ
METAR KCZZ 010652Z AUTO 06007KT 12/05 A2995 RMK AO1 SLP111 T01220050





000
SAUS46 KSGX 010653
MTRCZZ
METAR KCZZ 010652Z AUTO 06007KT 12/05 A2995 RMK AO1 SLP111 T01220050





000
SAUS46 KSGX 010553
MTRCZZ
METAR KCZZ 010552Z AUTO 05006KT 13/07 A2995 RMK AO1 SLP110 T01330067
10289 20133 50010





000
SAUS46 KSGX 010553
MTRCZZ
METAR KCZZ 010552Z AUTO 05006KT 13/07 A2995 RMK AO1 SLP110 T01330067
10289 20133 50010





000
SAUS46 KSGX 010453
MTRCZZ
METAR KCZZ 010452Z AUTO 03003KT 17/07 A2995 RMK AO1 SLP109 T01670072





000
SAUS46 KSGX 010353
MTRCZZ
METAR KCZZ 010352Z AUTO 34003KT 18/09 A2994 RMK AO1 SLP108 T01780089





000
SAUS46 KSGX 010353
MTRCZZ
METAR KCZZ 010352Z AUTO 34003KT 18/09 A2994 RMK AO1 SLP108 T01780089





000
SAUS46 KSGX 010253
MTRCZZ
METAR KCZZ 010252Z AUTO 18005KT 20/11 A2992 RMK AO1 SLP103 T02000106
53009





000
SAUS46 KSGX 010153
MTRCZZ
METAR KCZZ 010152Z AUTO 22009KT 24/08 A2990 RMK AO1 SLP098 T02390078





000
SAUS46 KSGX 010153
MTRCZZ
METAR KCZZ 010152Z AUTO 22009KT 24/08 A2990 RMK AO1 SLP098 T02390078





000
SAUS46 KSGX 010053
MTRCZZ
METAR KCZZ 010052Z AUTO 22014KT 27/07 A2989 RMK AO1 SLP091 T02720067





000
SAUS46 KSGX 312353
MTRCZZ
METAR KCZZ 312352Z AUTO 23014KT 29/08 A2989 RMK AO1 SLP089 T02890078
10322 20289 56010





    US Dept of Commerce
    National Oceanic and Atmospheric Administration
    National Weather Service
    1325 East West Highway
    Silver Spring, MD 20910
    Page Author: NWS Internet Services Team
Disclaimer
Information Quality
Credits
Glossary
Privacy Policy
Freedom of Information Act (FOIA)
About Us
Career Opportunities